createdAt,value
2023-09-05T00:00:52.730Z,15.35
2023-09-05T00:01:52.775Z,15.37
2023-09-05T00:02:52.753Z,15.38
2023-09-05T00:03:52.776Z,15.38
2023-09-05T00:04:52.718Z,15.37
2023-09-05T00:05:52.721Z,15.35
2023-09-05T00:06:52.726Z,15.35
2023-09-05T00:07:52.752Z,15.34
2023-09-05T00:08:52.721Z,15.34
2023-09-05T00:09:52.730Z,15.33
2023-09-05T00:10:52.745Z,15.32
2023-09-05T00:11:52.718Z,15.32
2023-09-05T00:12:52.881Z,15.30
2023-09-05T00:13:52.771Z,15.27
2023-09-05T00:14:52.743Z,15.28
2023-09-05T00:15:52.766Z,15.27
2023-09-05T00:16:52.764Z,15.27
2023-09-05T00:17:52.768Z,15.27
2023-09-05T00:18:52.756Z,15.26
2023-09-05T00:19:52.755Z,15.24
2023-09-05T00:20:52.756Z,15.22
2023-09-05T00:21:52.769Z,15.22
2023-09-05T00:22:52.805Z,15.20
2023-09-05T00:23:52.767Z,15.19
2023-09-05T00:24:52.838Z,15.18
2023-09-05T00:25:52.751Z,15.18
2023-09-05T00:26:52.756Z,15.18
2023-09-05T00:27:52.757Z,15.17
2023-09-05T00:28:52.777Z,15.14
2023-09-05T00:29:52.781Z,15.13
2023-09-05T00:30:52.759Z,15.11
2023-09-05T00:31:52.820Z,15.08
2023-09-05T00:32:52.812Z,15.07
2023-09-05T00:33:52.774Z,15.04
2023-09-05T00:34:52.810Z,15.03
2023-09-05T00:35:52.792Z,15.00
2023-09-05T00:36:52.824Z,14.98
2023-09-05T00:37:52.813Z,14.93
2023-09-05T00:38:52.857Z,14.91
2023-09-05T00:39:52.873Z,14.89
2023-09-05T00:40:52.892Z,14.89
2023-09-05T00:41:52.862Z,14.89
2023-09-05T00:42:52.881Z,14.90
2023-09-05T00:43:52.881Z,14.89
2023-09-05T00:44:52.923Z,14.89
2023-09-05T00:45:52.938Z,14.88
2023-09-05T00:46:52.947Z,14.86
2023-09-05T00:47:52.997Z,14.84
2023-09-05T00:48:52.956Z,14.84
2023-09-05T00:49:52.978Z,14.82
2023-09-05T00:50:53.013Z,14.81
2023-09-05T00:51:52.995Z,14.80
2023-09-05T00:52:52.997Z,14.79
2023-09-05T00:53:53.029Z,14.78
2023-09-05T00:54:53.044Z,14.75
2023-09-05T00:55:53.062Z,14.73
2023-09-05T00:56:53.053Z,14.72
2023-09-05T00:57:53.064Z,14.71
2023-09-05T00:58:53.067Z,14.70
2023-09-05T00:59:53.104Z,14.67
2023-09-05T01:00:53.187Z,14.65
2023-09-05T01:01:53.116Z,14.63
2023-09-05T01:02:53.143Z,14.62
2023-09-05T01:03:53.132Z,14.60
2023-09-05T01:04:53.147Z,14.63
2023-09-05T01:05:53.186Z,14.66
2023-09-05T01:06:53.171Z,14.65
2023-09-05T01:07:53.191Z,14.66
2023-09-05T01:08:53.191Z,14.64
2023-09-05T01:09:53.219Z,14.63
2023-09-05T01:10:53.248Z,14.62
2023-09-05T01:11:53.232Z,14.62
2023-09-05T01:12:53.262Z,14.63
2023-09-05T01:13:53.262Z,14.62
2023-09-05T01:14:53.260Z,14.62
2023-09-05T01:15:53.390Z,14.61
2023-09-05T01:16:53.332Z,14.60
2023-09-05T01:17:53.329Z,14.60
2023-09-05T01:18:53.330Z,14.59
2023-09-05T01:19:53.315Z,14.61
2023-09-05T01:20:53.382Z,14.62
2023-09-05T01:21:53.358Z,14.63
2023-09-05T01:22:53.466Z,14.61
2023-09-05T01:23:53.386Z,14.61
2023-09-05T01:24:53.405Z,14.61
2023-09-05T01:25:53.460Z,14.60
2023-09-05T01:26:53.473Z,14.59
2023-09-05T01:27:53.441Z,14.57
2023-09-05T01:28:53.441Z,14.55
2023-09-05T01:29:53.465Z,14.53
2023-09-05T01:30:53.553Z,14.50
2023-09-05T01:31:53.513Z,14.49
2023-09-05T01:32:53.584Z,14.48
2023-09-05T01:33:53.521Z,14.44
2023-09-05T01:34:53.501Z,14.41
2023-09-05T01:35:53.562Z,14.39
2023-09-05T01:36:53.579Z,14.35
2023-09-05T01:37:53.577Z,14.31
2023-09-05T01:38:53.576Z,14.30
2023-09-05T01:39:53.607Z,14.29
2023-09-05T01:40:53.624Z,14.28
2023-09-05T01:41:53.663Z,14.27
2023-09-05T01:42:53.648Z,14.27
2023-09-05T01:43:53.684Z,14.26
2023-09-05T01:44:53.614Z,14.25
2023-09-05T01:45:53.672Z,14.24
2023-09-05T01:46:53.747Z,14.24
2023-09-05T01:47:53.742Z,14.24
2023-09-05T01:48:53.673Z,14.25
2023-09-05T01:49:53.699Z,14.25
2023-09-05T01:50:53.703Z,14.26
2023-09-05T01:51:53.732Z,14.25
2023-09-05T01:52:53.802Z,14.25
2023-09-05T01:53:53.785Z,14.23
2023-09-05T01:54:53.757Z,14.25
2023-09-05T01:55:53.765Z,14.27
2023-09-05T01:56:53.774Z,14.29
2023-09-05T01:57:53.846Z,14.30
2023-09-05T01:58:53.803Z,14.29
2023-09-05T01:59:53.810Z,14.28
2023-09-05T02:00:53.861Z,14.29
2023-09-05T02:02:53.938Z,14.29
2023-09-05T02:03:53.832Z,14.29
2023-09-05T02:04:53.875Z,14.26
2023-09-05T02:05:53.844Z,14.27
2023-09-05T02:06:53.846Z,14.26
2023-09-05T02:07:53.909Z,14.25
2023-09-05T02:08:53.846Z,14.25
2023-09-05T02:09:53.864Z,14.26
2023-09-05T02:10:53.862Z,14.26
2023-09-05T02:11:53.991Z,14.24
2023-09-05T02:12:53.912Z,14.23
2023-09-05T02:13:53.883Z,14.22
2023-09-05T02:14:53.853Z,14.18
2023-09-05T02:15:53.852Z,14.15
2023-09-05T02:16:53.868Z,14.14
2023-09-05T02:17:53.895Z,14.13
2023-09-05T02:18:53.892Z,14.08
2023-09-05T02:19:53.900Z,14.07
2023-09-05T02:20:53.855Z,14.05
2023-09-05T02:21:53.857Z,14.04
2023-09-05T02:22:53.890Z,13.99
2023-09-05T02:23:53.903Z,13.96
2023-09-05T02:24:53.881Z,13.93
2023-09-05T02:25:53.872Z,13.92
2023-09-05T02:26:53.873Z,13.89
2023-09-05T02:27:53.929Z,13.86
2023-09-05T02:28:53.903Z,13.84
2023-09-05T02:29:53.882Z,13.83
2023-09-05T02:30:53.937Z,13.79
2023-09-05T02:31:53.868Z,13.76
2023-09-05T02:32:53.955Z,13.75
2023-09-05T02:33:53.890Z,13.74
2023-09-05T02:34:53.885Z,13.73
2023-09-05T02:35:53.910Z,13.72
2023-09-05T02:36:53.907Z,13.70
2023-09-05T02:37:53.891Z,13.69
2023-09-05T02:38:53.874Z,13.69
2023-09-05T02:39:53.923Z,13.67
2023-09-05T02:40:53.943Z,13.66
2023-09-05T02:41:53.912Z,13.62
2023-09-05T02:42:53.897Z,13.59
2023-09-05T02:43:53.880Z,13.56
2023-09-05T02:44:53.898Z,13.54
2023-09-05T02:45:53.938Z,13.52
2023-09-05T02:46:53.921Z,13.51
2023-09-05T02:47:53.961Z,13.48
2023-09-05T02:48:53.889Z,13.45
2023-09-05T02:49:53.896Z,13.44
2023-09-05T02:50:53.928Z,13.45
2023-09-05T02:51:53.905Z,13.46
2023-09-05T02:52:53.936Z,13.44
2023-09-05T02:53:53.901Z,13.44
2023-09-05T02:54:53.912Z,13.43
2023-09-05T02:55:53.903Z,13.43
2023-09-05T02:56:53.931Z,13.41
2023-09-05T02:57:53.928Z,13.42
2023-09-05T02:58:53.948Z,13.42
2023-09-05T02:59:53.909Z,13.40
2023-09-05T03:00:53.907Z,13.41
2023-09-05T03:01:53.959Z,13.42
2023-09-05T03:02:53.987Z,13.41
2023-09-05T03:03:53.980Z,13.42
2023-09-05T03:04:53.925Z,13.42
2023-09-05T03:05:53.893Z,13.42
2023-09-05T03:06:53.909Z,13.43
2023-09-05T03:07:53.979Z,13.43
2023-09-05T03:08:53.911Z,13.41
2023-09-05T03:09:53.936Z,13.39
2023-09-05T03:10:53.956Z,13.38
2023-09-05T03:11:53.914Z,13.34
2023-09-05T03:12:53.949Z,13.30
2023-09-05T03:13:53.937Z,13.28
2023-09-05T03:14:53.922Z,13.27
2023-09-05T03:16:53.933Z,13.25
2023-09-05T03:17:53.951Z,13.24
2023-09-05T03:18:53.954Z,13.25
2023-09-05T03:19:53.926Z,13.23
2023-09-05T03:20:53.952Z,13.22
2023-09-05T03:21:53.922Z,13.22
2023-09-05T03:22:53.930Z,13.22
2023-09-05T03:23:53.955Z,13.23
2023-09-05T03:24:53.940Z,13.23
2023-09-05T03:25:53.964Z,13.24
2023-09-05T03:26:53.951Z,13.25
2023-09-05T03:27:53.935Z,13.25
2023-09-05T03:28:53.996Z,13.25
2023-09-05T03:29:53.972Z,13.26
2023-09-05T03:30:53.963Z,13.27
2023-09-05T03:31:53.982Z,13.26
2023-09-05T03:32:53.980Z,13.27
2023-09-05T03:33:53.951Z,13.26
2023-09-05T03:34:53.994Z,13.23
2023-09-05T03:35:53.965Z,13.22
2023-09-05T03:36:53.942Z,13.23
2023-09-05T03:37:53.948Z,13.21
2023-09-05T03:38:53.946Z,13.20
2023-09-05T03:39:53.975Z,13.18
2023-09-05T03:40:53.945Z,13.16
2023-09-05T03:41:53.950Z,13.12
2023-09-05T03:42:53.960Z,13.10
2023-09-05T03:43:53.965Z,13.10
2023-09-05T03:44:53.983Z,13.09
2023-09-05T03:45:54.037Z,13.10
2023-09-05T03:46:53.971Z,13.09
2023-09-05T03:48:00.829Z,13.06
2023-09-05T03:48:54.103Z,13.06
2023-09-05T03:49:53.973Z,13.06
2023-09-05T03:50:53.978Z,13.07
2023-09-05T03:51:53.957Z,13.09
2023-09-05T03:52:53.974Z,13.08
2023-09-05T03:53:53.960Z,13.08
2023-09-05T03:54:53.993Z,13.09
2023-09-05T03:55:53.994Z,13.11
2023-09-05T03:56:53.963Z,13.14
2023-09-05T03:57:53.958Z,13.16
2023-09-05T03:58:53.987Z,13.17
2023-09-05T03:59:53.987Z,13.19
2023-09-05T04:00:54.031Z,13.19
2023-09-05T04:01:53.993Z,13.18
2023-09-05T04:02:54.010Z,13.17
2023-09-05T04:03:54.033Z,13.16
2023-09-05T04:04:53.968Z,13.16
2023-09-05T04:05:54.004Z,13.15
2023-09-05T04:06:53.982Z,13.15
2023-09-05T04:07:53.990Z,13.15
2023-09-05T04:08:53.981Z,13.12
2023-09-05T04:09:53.979Z,13.10
2023-09-05T04:10:54.000Z,13.10
2023-09-05T04:11:54.025Z,13.08
2023-09-05T04:12:53.993Z,13.08
2023-09-05T04:13:53.983Z,13.07
2023-09-05T04:14:53.986Z,13.04
2023-09-05T04:15:54.061Z,13.04
2023-09-05T04:16:54.028Z,13.04
2023-09-05T04:17:54.059Z,13.04
2023-09-05T04:18:53.994Z,13.04
2023-09-05T04:19:53.991Z,13.05
2023-09-05T04:20:54.022Z,13.05
2023-09-05T04:21:54.021Z,13.07
2023-09-05T04:22:53.987Z,13.08
2023-09-05T04:23:53.992Z,13.08
2023-09-05T04:24:54.006Z,13.08
2023-09-05T04:25:54.031Z,13.06
2023-09-05T04:26:54.425Z,13.06
2023-09-05T04:27:54.001Z,13.04
2023-09-05T04:28:54.009Z,13.02
2023-09-05T04:29:54.096Z,13.01
2023-09-05T04:30:54.091Z,13.00
2023-09-05T04:31:54.337Z,13.02
2023-09-05T04:32:54.069Z,13.01
2023-09-05T04:33:54.010Z,13.00
2023-09-05T04:34:54.012Z,12.97
2023-09-05T04:35:54.048Z,12.97
2023-09-05T04:36:54.028Z,12.95
2023-09-05T04:37:54.065Z,12.94
2023-09-05T04:38:54.028Z,12.93
2023-09-05T04:39:54.060Z,12.91
2023-09-05T04:40:54.040Z,12.93
2023-09-05T04:41:54.046Z,12.94
2023-09-05T04:42:54.081Z,12.95
2023-09-05T04:43:54.039Z,12.94
2023-09-05T04:44:54.044Z,12.95
2023-09-05T04:45:54.026Z,12.96
2023-09-05T04:46:54.077Z,12.97
2023-09-05T04:47:54.111Z,12.97
2023-09-05T04:48:54.035Z,12.98
2023-09-05T04:49:54.057Z,13.01
2023-09-05T04:50:54.029Z,13.02
2023-09-05T04:51:54.022Z,13.05
2023-09-05T04:52:54.030Z,13.06
2023-09-05T04:53:54.032Z,13.07
2023-09-05T04:54:54.041Z,13.06
2023-09-05T04:55:54.047Z,13.06
2023-09-05T04:56:54.040Z,13.05
2023-09-05T04:57:54.039Z,13.02
2023-09-05T04:58:54.041Z,13.02
2023-09-05T04:59:54.076Z,13.02
2023-09-05T05:00:54.114Z,13.03
2023-09-05T05:01:54.052Z,13.02
2023-09-05T05:02:54.135Z,13.02
2023-09-05T05:03:54.078Z,13.01
2023-09-05T05:04:54.056Z,13.02
2023-09-05T05:05:54.052Z,13.01
2023-09-05T05:06:54.053Z,13.02
2023-09-05T05:07:54.073Z,13.00
2023-09-05T05:08:54.073Z,13.05
2023-09-05T05:09:54.099Z,13.08
2023-09-05T05:10:54.157Z,13.11
2023-09-05T05:11:54.054Z,13.16
2023-09-05T05:12:54.077Z,13.18
2023-09-05T05:13:54.070Z,13.22
2023-09-05T05:14:54.083Z,13.26
2023-09-05T05:15:54.123Z,13.29
2023-09-05T05:16:54.182Z,13.32
2023-09-05T05:17:54.124Z,13.32
2023-09-05T05:18:54.082Z,13.34
2023-09-05T05:19:54.070Z,13.35
2023-09-05T05:20:54.076Z,13.35
2023-09-05T05:21:54.090Z,13.35
2023-09-05T05:22:54.156Z,13.35
2023-09-05T05:23:54.090Z,13.38
2023-09-05T05:24:54.058Z,13.39
2023-09-05T05:25:54.121Z,13.42
2023-09-05T05:26:54.073Z,13.39
2023-09-05T05:27:54.077Z,13.41
2023-09-05T05:28:54.069Z,13.41
2023-09-05T05:29:54.275Z,13.41
2023-09-05T05:30:54.103Z,13.40
2023-09-05T05:31:54.236Z,13.41
2023-09-05T05:32:54.121Z,13.41
2023-09-05T05:33:54.093Z,13.40
2023-09-05T05:34:54.135Z,13.41
2023-09-05T05:35:54.087Z,13.42
2023-09-05T05:36:54.074Z,13.43
2023-09-05T05:37:54.124Z,13.44
2023-09-05T05:38:54.081Z,13.42
2023-09-05T05:39:54.083Z,13.43
2023-09-05T05:40:54.118Z,13.42
2023-09-05T05:41:54.092Z,13.44
2023-09-05T05:42:54.103Z,13.46
2023-09-05T05:43:54.097Z,13.48
2023-09-05T05:44:54.083Z,13.50
2023-09-05T05:45:54.114Z,13.52
2023-09-05T05:46:54.139Z,13.55
2023-09-05T05:47:54.216Z,13.58
2023-09-05T05:48:54.092Z,13.62
2023-09-05T05:49:54.131Z,13.63
2023-09-05T05:50:54.148Z,13.65
2023-09-05T05:51:54.111Z,13.69
2023-09-05T05:52:54.166Z,13.74
2023-09-05T05:53:54.099Z,13.77
2023-09-05T05:54:54.114Z,13.81
2023-09-05T05:55:54.179Z,13.85
2023-09-05T05:56:54.148Z,13.91
2023-09-05T05:57:54.127Z,13.94
2023-09-05T05:58:54.097Z,13.98
2023-09-05T05:59:54.151Z,13.98
2023-09-05T06:00:54.101Z,13.98
2023-09-05T06:01:54.166Z,13.99
2023-09-05T06:02:54.144Z,14.02
2023-09-05T06:03:54.139Z,14.05
2023-09-05T06:04:54.128Z,14.06
2023-09-05T06:05:54.102Z,14.07
2023-09-05T06:06:54.286Z,14.12
2023-09-05T06:07:54.135Z,14.16
2023-09-05T06:08:54.154Z,14.21
2023-09-05T06:09:54.147Z,14.27
2023-09-05T06:10:54.167Z,14.31
2023-09-05T06:11:54.162Z,14.35
2023-09-05T06:12:54.108Z,14.40
2023-09-05T06:13:54.132Z,14.47
2023-09-05T06:14:54.104Z,14.52
2023-09-05T06:15:54.116Z,14.57
2023-09-05T06:16:54.142Z,14.61
2023-09-05T06:17:54.172Z,14.69
2023-09-05T06:18:54.128Z,14.74
2023-09-05T06:19:54.176Z,14.77
2023-09-05T06:20:54.141Z,14.81
2023-09-05T06:21:54.165Z,14.83
2023-09-05T06:22:54.129Z,14.86
2023-09-05T06:23:54.116Z,14.88
2023-09-05T06:24:54.157Z,14.90
2023-09-05T06:25:54.145Z,14.93
2023-09-05T06:26:54.197Z,14.96
2023-09-05T06:27:54.253Z,14.98
2023-09-05T06:28:54.176Z,15.06
2023-09-05T06:29:54.197Z,15.14
2023-09-05T06:30:54.212Z,15.20
2023-09-05T06:31:54.294Z,15.24
2023-09-05T06:32:54.245Z,15.29
2023-09-05T06:33:54.251Z,15.32
2023-09-05T06:34:54.298Z,15.34
2023-09-05T06:35:54.271Z,15.37
2023-09-05T06:36:54.321Z,15.38
2023-09-05T06:37:54.288Z,15.42
2023-09-05T06:38:54.312Z,15.45
2023-09-05T06:39:54.437Z,15.48
2023-09-05T06:40:54.325Z,15.49
2023-09-05T06:41:55.853Z,15.50
2023-09-05T06:42:54.364Z,15.53
2023-09-05T06:43:54.385Z,15.55
2023-09-05T06:44:54.400Z,15.59
2023-09-05T06:45:54.453Z,15.61
2023-09-05T06:46:54.450Z,15.64
2023-09-05T06:47:54.507Z,15.70
2023-09-05T06:48:54.447Z,15.80
2023-09-05T06:49:54.470Z,15.87
2023-09-05T06:50:54.466Z,15.93
2023-09-05T06:51:54.495Z,15.99
2023-09-05T06:52:54.501Z,16.07
2023-09-05T06:53:54.486Z,16.15
2023-09-05T06:54:54.514Z,16.20
2023-09-05T06:55:54.550Z,16.27
2023-09-05T06:56:54.569Z,16.35
2023-09-05T06:57:54.667Z,16.39
2023-09-05T06:58:54.582Z,16.44
2023-09-05T06:59:54.613Z,16.51
2023-09-05T07:00:54.611Z,16.57
2023-09-05T07:01:54.647Z,16.68
2023-09-05T07:02:54.688Z,16.82
2023-09-05T07:03:54.603Z,17.02
2023-09-05T07:04:54.707Z,17.27
2023-09-05T07:06:05.125Z,17.61
2023-09-05T07:06:54.682Z,17.92
2023-09-05T07:07:54.704Z,18.31
2023-09-05T07:08:54.649Z,18.76
2023-09-05T07:09:54.662Z,19.29
2023-09-05T07:10:54.659Z,19.90
2023-09-05T07:11:54.639Z,20.47
2023-09-05T07:12:54.649Z,20.95
2023-09-05T07:13:54.666Z,21.39
2023-09-05T07:14:54.636Z,21.81
2023-09-05T07:15:54.704Z,22.19
2023-09-05T07:16:55.367Z,22.57
2023-09-05T07:17:54.727Z,22.94
2023-09-05T07:18:54.663Z,23.35
2023-09-05T07:19:54.671Z,23.71
2023-09-05T07:20:54.678Z,24.07
2023-09-05T07:21:54.694Z,24.35
2023-09-05T07:22:54.706Z,24.63
2023-09-05T07:23:54.686Z,24.88
2023-09-05T07:24:54.667Z,25.13
2023-09-05T07:25:54.696Z,25.37
2023-09-05T07:26:54.674Z,25.51
2023-09-05T07:27:54.687Z,25.49
2023-09-05T07:28:54.694Z,25.37
2023-09-05T07:29:54.777Z,25.18
2023-09-05T07:30:54.695Z,25.00
2023-09-05T07:31:54.827Z,24.83
2023-09-05T07:32:54.733Z,24.55
2023-09-05T07:33:54.740Z,24.26
2023-09-05T07:34:54.717Z,23.90
2023-09-05T07:35:54.695Z,23.46
2023-09-05T07:36:54.684Z,22.95
2023-09-05T07:37:54.691Z,22.51
2023-09-05T07:38:54.704Z,22.15
2023-09-05T07:39:54.699Z,21.82
2023-09-05T07:40:54.696Z,21.51
2023-09-05T07:41:54.661Z,21.26
2023-09-05T07:43:48.670Z,20.92
2023-09-05T07:44:48.691Z,20.79
2023-09-05T07:45:48.741Z,20.62
2023-09-05T07:46:48.664Z,20.46
2023-09-05T07:47:48.737Z,20.34
2023-09-05T07:48:48.663Z,20.27
2023-09-05T07:49:48.692Z,20.21
2023-09-05T07:50:50.207Z,20.18
2023-09-05T07:51:48.682Z,20.15
2023-09-05T07:52:48.786Z,20.15
2023-09-05T07:53:48.693Z,20.14
2023-09-05T07:54:48.678Z,20.16
2023-09-05T07:55:48.722Z,20.19
2023-09-05T07:56:48.711Z,20.20
2023-09-05T07:57:48.683Z,20.19
2023-09-05T07:58:48.699Z,20.27
2023-09-05T07:59:48.698Z,20.30
2023-09-05T08:00:48.720Z,20.34
2023-09-05T08:01:48.723Z,20.38
2023-09-05T08:02:48.757Z,20.41
2023-09-05T08:03:48.723Z,20.42
2023-09-05T08:04:48.680Z,20.40
2023-09-05T08:05:48.700Z,20.38
2023-09-05T08:06:48.709Z,20.39
2023-09-05T08:07:48.731Z,20.43
2023-09-05T08:08:48.700Z,20.48
2023-09-05T08:09:48.701Z,20.56
2023-09-05T08:10:48.702Z,20.62
2023-09-05T08:11:48.708Z,20.66
2023-09-05T08:12:48.742Z,20.67
2023-09-05T08:13:48.696Z,20.67
2023-09-05T08:14:48.733Z,20.65
2023-09-05T08:15:48.735Z,20.63
2023-09-05T08:16:48.707Z,20.60
2023-09-05T08:17:48.922Z,20.57
2023-09-05T08:18:48.868Z,20.55
2023-09-05T08:19:48.880Z,20.54
2023-09-05T08:20:48.873Z,20.55
2023-09-05T08:21:48.884Z,20.56
2023-09-05T08:22:48.935Z,20.58
2023-09-05T08:23:48.932Z,20.70
2023-09-05T08:24:48.919Z,20.88
2023-09-05T08:25:48.935Z,20.96
2023-09-05T08:26:48.956Z,21.03
2023-09-05T08:27:49.014Z,21.17
2023-09-05T08:28:48.991Z,21.38
2023-09-05T08:29:49.009Z,21.52
2023-09-05T08:30:49.038Z,21.55
2023-09-05T08:31:49.127Z,21.56
2023-09-05T08:32:49.107Z,21.63
2023-09-05T08:33:49.029Z,21.76
2023-09-05T08:34:49.090Z,21.90
2023-09-05T08:35:49.079Z,22.06
2023-09-05T08:36:49.093Z,22.23
2023-09-05T08:37:49.127Z,22.40
2023-09-05T08:38:49.141Z,22.51
2023-09-05T08:39:49.130Z,22.60
2023-09-05T08:40:49.122Z,22.70
2023-09-05T08:41:49.132Z,22.78
2023-09-05T08:42:49.156Z,22.79
2023-09-05T08:43:49.189Z,22.82
2023-09-05T08:44:49.182Z,22.85
2023-09-05T08:45:49.201Z,22.93
2023-09-05T08:46:49.217Z,23.08
2023-09-05T08:47:49.253Z,23.21
2023-09-05T08:48:55.720Z,23.35
2023-09-05T08:49:49.235Z,23.54
2023-09-05T08:50:49.225Z,23.74
2023-09-05T08:51:49.266Z,23.92
2023-09-05T08:52:49.223Z,24.11
2023-09-05T08:53:49.253Z,24.26
2023-09-05T08:54:49.223Z,24.43
2023-09-05T08:55:49.221Z,24.63
2023-09-05T08:56:49.234Z,24.89
2023-09-05T08:57:49.233Z,25.08
2023-09-05T08:58:49.260Z,25.22
2023-09-05T08:59:49.278Z,25.20
2023-09-05T09:00:49.267Z,25.24
2023-09-05T09:01:49.314Z,25.41
2023-09-05T09:02:49.319Z,25.67
2023-09-05T09:03:49.398Z,25.95
2023-09-05T09:04:49.267Z,26.12
2023-09-05T09:05:49.394Z,26.29
2023-09-05T09:06:49.259Z,26.40
2023-09-05T09:07:49.247Z,26.48
2023-09-05T09:08:49.274Z,26.57
2023-09-05T09:09:49.275Z,26.74
2023-09-05T09:10:49.265Z,26.85
2023-09-05T09:11:49.251Z,26.76
2023-09-05T09:12:49.254Z,26.67
2023-09-05T09:13:49.284Z,26.64
2023-09-05T09:14:49.287Z,26.63
2023-09-05T09:15:49.282Z,26.60
2023-09-05T09:16:49.320Z,26.55
2023-09-05T09:17:49.316Z,26.57
2023-09-05T09:18:49.299Z,26.58
2023-09-05T09:19:49.631Z,26.57
2023-09-05T09:20:49.254Z,26.60
2023-09-05T09:21:49.292Z,26.57
2023-09-05T09:22:49.270Z,26.55
2023-09-05T09:23:49.300Z,26.62
2023-09-05T09:24:49.301Z,26.88
2023-09-05T09:25:49.341Z,27.26
2023-09-05T09:26:49.346Z,27.58
2023-09-05T09:27:49.351Z,27.72
2023-09-05T09:28:49.373Z,27.65
2023-09-05T09:29:49.406Z,27.46
2023-09-05T09:30:49.411Z,27.14
2023-09-05T09:31:49.413Z,27.01
2023-09-05T09:32:49.438Z,27.09
2023-09-05T09:33:49.483Z,27.19
2023-09-05T09:34:49.436Z,27.23
2023-09-05T09:35:49.461Z,27.34
2023-09-05T09:36:49.468Z,27.43
2023-09-05T09:37:49.494Z,27.48
2023-09-05T09:38:49.467Z,27.48
2023-09-05T09:39:49.546Z,27.54
2023-09-05T09:40:49.538Z,27.76
2023-09-05T09:41:49.527Z,28.00
2023-09-05T09:42:50.801Z,28.20
2023-09-05T09:43:49.539Z,28.33
2023-09-05T09:44:49.543Z,28.34
2023-09-05T09:45:49.589Z,28.46
2023-09-05T09:46:49.581Z,28.64
2023-09-05T09:47:49.751Z,28.72
2023-09-05T09:48:49.638Z,28.79
2023-09-05T09:49:49.602Z,28.79
2023-09-05T09:50:49.708Z,28.83
2023-09-05T09:51:49.697Z,28.75
2023-09-05T09:52:49.709Z,28.69
2023-09-05T09:53:49.685Z,28.78
2023-09-05T09:54:49.682Z,28.57
2023-09-05T09:55:49.693Z,28.49
2023-09-05T09:56:49.747Z,28.35
2023-09-05T09:57:49.715Z,28.23
2023-09-05T09:58:49.770Z,28.23
2023-09-05T09:59:49.746Z,28.16
2023-09-05T10:00:49.766Z,28.14
2023-09-05T10:01:49.840Z,28.30
2023-09-05T10:02:49.812Z,28.57
2023-09-05T10:03:49.905Z,28.62
2023-09-05T10:04:49.797Z,28.44
2023-09-05T10:05:49.819Z,28.35
2023-09-05T10:06:49.883Z,28.41
2023-09-05T10:07:49.864Z,28.50
2023-09-05T10:08:49.864Z,28.81
2023-09-05T10:09:49.873Z,28.88
2023-09-05T10:10:49.875Z,28.75
2023-09-05T10:11:49.932Z,28.58
2023-09-05T10:12:49.932Z,28.56
2023-09-05T10:13:49.948Z,28.72
2023-09-05T10:14:50.016Z,28.84
2023-09-05T10:15:49.985Z,29.00
2023-09-05T10:16:49.988Z,29.18
2023-09-05T10:17:50.083Z,29.44
2023-09-05T10:18:50.011Z,29.77
2023-09-05T10:19:49.992Z,30.17
2023-09-05T10:20:50.003Z,30.50
2023-09-05T10:21:50.018Z,30.73
2023-09-05T10:22:50.023Z,30.86
2023-09-05T10:23:50.258Z,31.16
2023-09-05T10:24:50.069Z,31.32
2023-09-05T10:25:50.068Z,31.18
2023-09-05T10:26:51.015Z,31.02
2023-09-05T10:27:50.095Z,30.96
2023-09-05T10:28:50.089Z,30.90
2023-09-05T10:29:50.186Z,30.76
2023-09-05T10:30:50.202Z,30.98
2023-09-05T10:31:50.365Z,30.94
2023-09-05T10:32:50.217Z,30.98
2023-09-05T10:33:50.203Z,31.11
2023-09-05T10:34:50.247Z,31.29
2023-09-05T10:35:50.197Z,31.63
2023-09-05T10:36:50.218Z,31.84
2023-09-05T10:37:50.206Z,31.85
2023-09-05T10:38:50.209Z,31.73
2023-09-05T10:39:50.263Z,31.58
2023-09-05T10:40:50.270Z,31.81
2023-09-05T10:41:50.282Z,31.97
2023-09-05T10:42:50.301Z,31.87
2023-09-05T10:43:50.370Z,31.82
2023-09-05T10:44:50.331Z,32.01
2023-09-05T10:45:50.409Z,32.19
2023-09-05T10:46:50.337Z,32.27
2023-09-05T10:47:50.385Z,32.09
2023-09-05T10:48:50.370Z,31.96
2023-09-05T10:49:50.384Z,31.93
2023-09-05T10:50:50.432Z,32.08
2023-09-05T10:51:50.422Z,32.14
2023-09-05T10:52:50.408Z,32.04
2023-09-05T10:53:50.438Z,31.97
2023-09-05T10:54:50.467Z,32.00
2023-09-05T10:55:50.506Z,32.16
2023-09-05T10:56:50.470Z,32.34
2023-09-05T10:57:50.621Z,32.39
2023-09-05T10:58:50.499Z,32.39
2023-09-05T10:59:50.489Z,32.38
2023-09-05T11:00:50.548Z,32.39
2023-09-05T11:01:50.552Z,32.54
2023-09-05T11:02:50.607Z,32.76
2023-09-05T11:03:50.559Z,32.69
2023-09-05T11:04:50.672Z,32.61
2023-09-05T11:05:50.627Z,32.60
2023-09-05T11:06:50.591Z,32.63
2023-09-05T11:07:50.614Z,32.63
2023-09-05T11:08:50.638Z,32.52
2023-09-05T11:09:51.147Z,32.60
2023-09-05T11:10:50.671Z,32.93
2023-09-05T11:11:50.658Z,33.37
2023-09-05T11:12:50.666Z,33.49
2023-09-05T11:13:50.671Z,33.33
2023-09-05T11:14:50.697Z,33.40
2023-09-05T11:15:53.064Z,33.66
2023-09-05T11:16:50.917Z,33.61
2023-09-05T11:17:50.768Z,33.36
2023-09-05T11:18:50.699Z,32.95
2023-09-05T11:19:50.724Z,32.70
2023-09-05T11:20:50.745Z,32.66
2023-09-05T11:21:50.715Z,32.66
2023-09-05T11:22:50.705Z,32.62
2023-09-05T11:23:50.722Z,32.72
2023-09-05T11:24:50.724Z,32.98
2023-09-05T11:25:50.741Z,33.30
2023-09-05T11:26:50.753Z,33.60
2023-09-05T11:27:50.734Z,33.90
2023-09-05T11:28:50.714Z,34.15
2023-09-05T11:29:50.726Z,34.29
2023-09-05T11:30:50.744Z,34.48
2023-09-05T11:31:50.846Z,34.62
2023-09-05T11:32:50.737Z,34.88
2023-09-05T11:33:50.751Z,35.09
2023-09-05T11:34:50.727Z,35.19
2023-09-05T11:35:50.780Z,35.36
2023-09-05T11:36:50.740Z,35.39
2023-09-05T11:37:50.735Z,35.37
2023-09-05T11:38:50.776Z,35.02
2023-09-05T11:39:50.741Z,34.70
2023-09-05T11:40:51.933Z,34.39
2023-09-05T11:41:50.755Z,34.26
2023-09-05T11:42:50.775Z,34.12
2023-09-05T11:43:50.734Z,33.70
2023-09-05T11:44:50.781Z,33.51
2023-09-05T11:45:50.775Z,33.53
2023-09-05T11:46:50.790Z,33.57
2023-09-05T11:47:50.782Z,33.48
2023-09-05T11:48:50.772Z,33.30
2023-09-05T11:49:50.760Z,33.18
2023-09-05T11:50:50.796Z,33.13
2023-09-05T11:51:50.820Z,33.44
2023-09-05T11:52:50.783Z,33.80
2023-09-05T11:53:50.764Z,34.13
2023-09-05T11:54:50.770Z,34.25
2023-09-05T11:55:50.803Z,34.29
2023-09-05T11:56:50.800Z,34.44
2023-09-05T11:57:50.779Z,34.65
2023-09-05T11:58:50.783Z,34.66
2023-09-05T11:59:50.790Z,34.53
2023-09-05T12:00:50.878Z,34.27
2023-09-05T12:01:50.785Z,34.13
2023-09-05T12:02:50.781Z,34.02
2023-09-05T12:03:50.909Z,33.98
2023-09-05T12:04:50.831Z,33.89
2023-09-05T12:05:50.868Z,34.02
2023-09-05T12:06:50.809Z,34.25
2023-09-05T12:07:50.783Z,34.21
2023-09-05T12:08:50.795Z,34.04
2023-09-05T12:09:50.806Z,33.89
2023-09-05T12:10:50.860Z,33.73
2023-09-05T12:11:50.874Z,33.46
2023-09-05T12:12:50.870Z,33.29
2023-09-05T12:13:50.844Z,33.17
2023-09-05T12:14:50.886Z,33.01
2023-09-05T12:15:50.930Z,32.93
2023-09-05T12:16:50.942Z,32.99
2023-09-05T12:17:50.934Z,33.23
2023-09-05T12:18:50.926Z,33.47
2023-09-05T12:19:50.935Z,33.52
2023-09-05T12:20:50.942Z,33.70
2023-09-05T12:21:50.993Z,33.93
2023-09-05T12:22:51.018Z,33.89
2023-09-05T12:23:51.001Z,33.88
2023-09-05T12:25:04.200Z,33.89
2023-09-05T12:25:56.512Z,33.65
2023-09-05T12:26:51.090Z,33.55
2023-09-05T12:27:51.039Z,33.56
2023-09-05T12:28:51.014Z,33.56
2023-09-05T12:29:50.982Z,33.61
2023-09-05T12:30:51.091Z,33.57
2023-09-05T12:31:51.078Z,33.64
2023-09-05T12:32:51.034Z,33.78
2023-09-05T12:33:51.013Z,34.12
2023-09-05T12:34:51.002Z,34.52
2023-09-05T12:35:51.047Z,34.68
2023-09-05T12:36:51.065Z,34.61
2023-09-05T12:37:51.009Z,34.48
2023-09-05T12:38:51.019Z,34.37
2023-09-05T12:39:51.022Z,34.17
2023-09-05T12:40:51.027Z,34.02
2023-09-05T12:41:51.064Z,34.00
2023-09-05T12:42:51.015Z,33.88
2023-09-05T12:43:51.050Z,33.76
2023-09-05T12:44:51.043Z,33.84
2023-09-05T12:45:51.025Z,33.96
2023-09-05T12:46:51.073Z,34.17
2023-09-05T12:47:51.168Z,34.36
2023-09-05T12:48:51.040Z,34.54
2023-09-05T12:50:08.321Z,34.59
2023-09-05T12:50:51.549Z,34.68
2023-09-05T12:51:51.065Z,34.75
2023-09-05T12:52:51.116Z,34.62
2023-09-05T12:53:51.034Z,34.35
2023-09-05T12:54:51.032Z,34.03
2023-09-05T12:55:51.067Z,33.83